Airfield :
LOGIN :

Register | Disclaimer

   EN    FR    IT 

 










Legend :    VFR   Marginal VFR   IFR   Intensive IFR   Very Intensive IFR
Visi :
Ceiling :
>= 8 km
>= 3000ft
5 to 8 km
1000 to 3000 ft
1500m to 5 km
500 to 1000 ft
800 to 1500m
200 to 500 ft
< 800m
< 200 ft
Symbols :   Thunderstorms  Fog  Heavy snow  Heavy precipitations  Wind > 20 kt
SIGMETs :     Misc.  Thunderstorms  Icing  Turbulence  Mountain Waves  Volcanic Ashes







- Airport Elevation : 184 ft
- IATA code : BRU


EBBR - Bruxelles

CURRENT METAR :
  • 101320Z 32011KT 9999 FEW028 08/03 Q1024 NOSIG

EXPIRED METARs :
  • 101250Z 31012KT 9999 FEW028 07/02 Q1024 NOSIG
  • 101220Z 30014KT 9999 FEW024 SCT046 08/02 Q1024 NOSIG
  • 101150Z 29014KT 9999 FEW024 SCT042 08/03 Q1024 NOSIG
  • 101120Z 28011KT 9999 SCT019 07/04 Q1024 NOSIG
  • 101050Z 27012KT 9999 SCT040 07/04 Q1024 NOSIG
  • 101020Z 27010KT 9999 BKN019 07/04 Q1024 NOSIG

TAF TAF EBBR
Valid from the 10 at 12:00 until the 11 at 18:00 UTC


101110Z 1012/1118 30009KT 9999 SCT020
PROB30
TEMPO 1013/1017 4000 SHRA FEW009 BKN014TCU
No reported NOTAMs for that airfield.



MET'MAP, your aeronautical weather chart ! - Copyright ORBIFLY December 2007 - Disclaimer

ORBIFLY MET'MAP TEAM :

Programming & Development : Alexandra Zaïnal
Concept & Development : Baudouin d'Aumeries
Co-Development & Prog : Marc-Olivier Méhu
Technical & hardware support : Manuel Goepfert

Contact : metmap@orbifly.com




SOURCES & CREDITS :

   NOAA